Time;durP1;ratioP1;P1;durP2;ratioP2;P2;SDS_P1;SDS_P2;PMS_P1;PMS_P2;Temp;Humidity;BMP_temperature;BMP_pressure;BME280_temperature;BME280_humidity;BME280_pressure;Samples;Min_cycle;Max_cycle;Signal;HPM_P1;HPM_P2
2022/05/19 00:01:01;;;;;;;16.70;13.60;;;20.30;99.90;;;;;;5077866;28;20541;-68
2022/05/19 00:03:23;;;;;;;15.23;13.27;;;20.30;99.90;;;;;;5084071;28;20478;-67
2022/05/19 00:05:50;;;;;;;19.10;13.37;;;20.30;99.90;;;;;;5070861;28;20462;-67
2022/05/19 00:08:17;;;;;;;19.87;15.33;;;20.30;99.90;;;;;;5075444;28;20462;-67
2022/05/19 00:10:44;;;;;;;14.17;12.80;;;20.30;99.90;;;;;;5078859;28;20803;-67
2022/05/19 00:13:12;;;;;;;21.90;13.60;;;20.20;99.90;;;;;;5081375;28;20463;-67
2022/05/19 00:15:41;;;;;;;19.47;14.90;;;20.20;99.90;;;;;;5083022;28;20470;-67
2022/05/19 00:18:08;;;;;;;20.10;14.40;;;20.10;99.90;;;;;;5073938;28;20462;-68
2022/05/19 00:20:37;;;;;;;16.17;14.40;;;20.10;99.90;;;;;;5086232;28;20490;-67
2022/05/19 00:23:05;;;;;;;18.30;13.60;;;20.00;99.90;;;;;;5074371;28;20463;-67
2022/05/19 00:25:32;;;;;;;29.13;15.03;;;20.00;99.90;;;;;;5080026;28;20462;-67
2022/05/19 00:27:59;;;;;;;19.63;14.80;;;19.90;99.90;;;;;;5080401;28;20489;-67
2022/05/19 00:30:26;;;;;;;24.37;14.10;;;19.90;99.90;;;;;;5080413;28;20463;-67
2022/05/19 00:32:54;;;;;;;21.50;15.07;;;19.90;99.90;;;;;;5080850;28;20474;-67
2022/05/19 00:35:21;;;;;;;32.47;15.80;;;19.90;99.90;;;;;;5082002;28;20461;-68
2022/05/19 00:37:48;;;;;;;26.83;14.33;;;19.90;99.90;;;;;;5084253;28;20567;-68
2022/05/19 00:40:17;;;;;;;24.30;13.77;;;19.80;99.90;;;;;;5080981;28;20481;-68
2022/05/19 00:42:46;;;;;;;17.60;14.63;;;19.90;99.90;;;;;;5076302;28;20459;-67
2022/05/19 00:45:16;;;;;;;15.80;14.00;;;19.90;99.90;;;;;;5076790;28;20525;-66
2022/05/19 00:47:47;;;;;;;18.90;13.30;;;19.90;99.90;;;;;;5079443;28;20450;-67
2022/05/19 00:50:23;;;;;;;16.83;14.40;;;19.90;99.90;;;;;;5086731;28;20458;-67
2022/05/19 00:52:52;;;;;;;22.60;14.47;;;19.90;99.90;;;;;;5075248;28;20509;-67
2022/05/19 00:55:23;;;;;;;14.70;13.43;;;19.80;99.90;;;;;;5078025;28;20832;-67
2022/05/19 00:57:56;;;;;;;14.93;13.60;;;19.80;99.90;;;;;;5082530;28;20464;-67
2022/05/19 01:00:23;;;;;;;17.20;15.53;;;19.70;99.90;;;;;;5075156;28;20980;-67
2022/05/19 01:02:53;;;;;;;20.83;13.63;;;19.70;99.90;;;;;;5073939;28;20497;-68
2022/05/19 01:05:26;;;;;;;24.90;14.30;;;19.70;99.90;;;;;;5072910;28;20478;-67
2022/05/19 01:08:00;;;;;;;19.33;13.80;;;19.70;99.90;;;;;;5077895;28;20458;-67
2022/05/19 01:10:28;;;;;;;23.23;14.37;;;19.70;99.90;;;;;;5078206;28;20455;-67
2022/05/19 01:12:55;;;;;;;19.83;13.57;;;19.70;99.90;;;;;;5081416;28;20485;-68
2022/05/19 01:15:23;;;;;;;15.67;13.30;;;19.70;99.90;;;;;;5082925;28;20550;-67
2022/05/19 01:17:51;;;;;;;22.27;13.90;;;19.80;99.90;;;;;;5075642;28;20829;-66
2022/05/19 01:20:26;;;;;;;14.30;13.03;;;19.80;99.90;;;;;;5074704;28;20494;-67
2022/05/19 01:22:59;;;;;;;16.93;13.80;;;19.80;99.90;;;;;;5081608;28;20462;-67
2022/05/19 01:25:38;;;;;;;14.87;13.40;;;19.80;99.90;;;;;;5078806;28;20466;-67
2022/05/19 01:28:08;;;;;;;15.50;13.50;;;19.90;99.90;;;;;;5076745;28;20512;-67
2022/05/19 01:30:36;;;;;;;15.33;12.80;;;19.90;99.90;;;;;;5081166;28;20469;-68
2022/05/19 01:33:04;;;;;;;23.53;14.13;;;19.90;99.90;;;;;;5081265;28;20805;-67
2022/05/19 01:35:33;;;;;;;14.83;13.77;;;19.90;99.90;;;;;;5074596;28;20501;-67
2022/05/19 01:38:02;;;;;;;15.23;14.00;;;19.90;99.90;;;;;;5081047;28;20465;-67
2022/05/19 01:40:43;;;;;;;15.83;14.27;;;19.90;99.90;;;;;;5075360;28;20499;-66
2022/05/19 01:43:20;;;;;;;14.30;12.90;;;20.00;99.90;;;;;;5082238;28;20950;-66
2022/05/19 01:45:58;;;;;;;14.80;13.10;;;20.00;99.90;;;;;;5072747;28;20494;-67
2022/05/19 01:48:33;;;;;;;15.03;13.20;;;20.00;99.90;;;;;;5082710;28;20731;-67
2022/05/19 01:51:07;;;;;;;16.53;13.83;;;20.00;99.90;;;;;;5078428;28;20710;-67
2022/05/19 01:53:39;;;;;;;17.60;13.53;;;19.90;99.90;;;;;;5075772;28;20453;-67
2022/05/19 01:56:15;;;;;;;14.00;12.80;;;19.90;99.90;;;;;;5081161;28;20466;-67
2022/05/19 01:58:49;;;;;;;15.80;13.63;;;19.90;99.90;;;;;;5076421;28;20462;-67
2022/05/19 02:01:20;;;;;;;14.37;13.07;;;19.90;99.90;;;;;;5072521;28;20480;-67
2022/05/19 02:03:53;;;;;;;15.00;13.47;;;19.90;99.90;;;;;;5078033;28;20833;-67
2022/05/19 02:06:25;;;;;;;16.57;13.90;;;19.90;99.90;;;;;;5080503;28;20845;-66
2022/05/19 02:08:55;;;;;;;15.03;13.70;;;19.80;99.90;;;;;;5081352;28;20455;-67
2022/05/19 02:11:26;;;;;;;16.07;14.40;;;19.80;99.90;;;;;;5077172;28;20458;-66
2022/05/19 02:13:57;;;;;;;15.77;13.87;;;19.70;99.90;;;;;;5074683;28;20453;-67
2022/05/19 02:16:25;;;;;;;14.27;13.20;;;19.70;99.90;;;;;;5075738;28;20489;-67
2022/05/19 02:18:54;;;;;;;18.90;13.90;;;19.60;99.90;;;;;;5079463;28;20457;-67
2022/05/19 02:21:22;;;;;;;16.13;14.70;;;19.60;99.90;;;;;;5078620;28;20985;-66
2022/05/19 02:23:49;;;;;;;16.40;14.50;;;19.70;99.90;;;;;;5077176;28;20462;-67
2022/05/19 02:26:16;;;;;;;22.50;14.53;;;19.70;99.90;;;;;;5080277;28;20944;-67
2022/05/19 02:28:47;;;;;;;19.33;14.90;;;19.70;99.90;;;;;;5072038;28;20455;-67
2022/05/19 02:31:17;;;;;;;16.23;14.53;;;19.70;99.90;;;;;;5080265;28;20908;-67
2022/05/19 02:33:44;;;;;;;28.90;14.50;;;19.60;99.90;;;;;;5077394;28;20458;-67
2022/05/19 02:36:12;;;;;;;15.80;14.53;;;19.70;99.90;;;;;;5083256;28;20540;-67
2022/05/19 02:38:39;;;;;;;20.63;14.17;;;19.70;99.90;;;;;;5084687;28;20458;-67
2022/05/19 02:41:07;;;;;;;15.97;14.23;;;19.70;99.90;;;;;;5076406;28;21034;-67
2022/05/19 02:43:34;;;;;;;15.83;14.33;;;19.70;99.90;;;;;;5069523;28;20485;-67
2022/05/19 02:46:02;;;;;;;16.80;13.60;;;19.70;99.90;;;;;;5083896;28;20482;-66
2022/05/19 02:48:32;;;;;;;15.20;13.90;;;19.70;99.90;;;;;;5087006;28;20832;-66
2022/05/19 02:51:00;;;;;;;14.93;13.80;;;19.60;99.90;;;;;;5081072;28;20468;-67
2022/05/19 02:53:28;;;;;;;15.83;14.47;;;19.70;99.90;;;;;;5077828;28;20454;-66
2022/05/19 02:55:55;;;;;;;15.07;13.63;;;19.70;99.90;;;;;;5076361;28;20473;-67
2022/05/19 02:58:23;;;;;;;17.37;15.50;;;19.60;99.90;;;;;;5085225;28;20458;-67
2022/05/19 03:00:50;;;;;;;15.13;14.03;;;19.60;99.90;;;;;;5081508;28;20953;-66
2022/05/19 03:03:18;;;;;;;16.93;14.77;;;19.60;99.90;;;;;;5078273;28;20465;-67
2022/05/19 03:05:46;;;;;;;14.07;13.10;;;19.50;99.90;;;;;;5080209;28;20869;-67
2022/05/19 03:08:14;;;;;;;14.73;13.57;;;19.50;99.90;;;;;;5076344;28;20462;-67
2022/05/19 03:10:43;;;;;;;15.47;14.03;;;19.50;99.90;;;;;;5082480;28;20969;-67
2022/05/19 03:13:18;;;;;;;16.80;15.40;;;19.40;99.90;;;;;;5083594;28;21520;-67
2022/05/19 03:15:45;;;;;;;14.70;13.50;;;19.40;99.90;;;;;;5085445;28;20465;-67
2022/05/19 03:18:12;;;;;;;15.80;14.37;;;19.40;99.90;;;;;;5083236;28;20492;-67
2022/05/19 03:20:39;;;;;;;15.33;14.03;;;19.30;99.90;;;;;;5078545;28;20888;-67
2022/05/19 03:23:08;;;;;;;19.10;14.30;;;19.30;99.90;;;;;;5077568;28;20474;-67
2022/05/19 03:25:36;;;;;;;17.10;15.57;;;19.20;99.90;;;;;;5076211;28;20467;-66
2022/05/19 03:28:03;;;;;;;17.47;14.70;;;19.20;99.90;;;;;;5075298;28;20509;-66
2022/05/19 03:30:31;;;;;;;17.73;14.13;;;19.20;99.90;;;;;;5081785;28;20841;-67
2022/05/19 03:32:58;;;;;;;23.13;13.63;;;19.20;99.90;;;;;;5081676;28;20497;-67
2022/05/19 03:35:25;;;;;;;17.37;14.77;;;19.20;99.90;;;;;;5079772;28;20469;-67
2022/05/19 03:37:52;;;;;;;22.60;15.00;;;19.10;99.90;;;;;;5083918;28;20478;-66
2022/05/19 03:40:22;;;;;;;22.67;14.73;;;19.10;99.90;;;;;;5074489;28;20496;-66
2022/05/19 03:42:49;;;;;;;15.37;13.83;;;19.00;99.90;;;;;;5081264;28;20820;-67
2022/05/19 03:45:18;;;;;;;15.30;14.17;;;19.10;99.90;;;;;;5083172;28;20871;-66
2022/05/19 03:47:44;;;;;;;14.90;13.70;;;19.00;99.90;;;;;;5078419;28;20455;-67
2022/05/19 03:50:12;;;;;;;17.17;13.70;;;19.00;99.90;;;;;;5082737;28;20470;-67
2022/05/19 03:52:41;;;;;;;15.50;14.17;;;19.00;99.90;;;;;;5074647;28;20517;-67
2022/05/19 03:55:11;;;;;;;15.10;13.80;;;19.00;99.90;;;;;;5079901;28;20853;-66
2022/05/19 03:57:40;;;;;;;14.63;13.20;;;19.00;99.90;;;;;;5079057;28;20462;-67
2022/05/19 04:00:09;;;;;;;15.60;14.07;;;19.00;99.90;;;;;;5082783;28;20953;-66
2022/05/19 04:02:36;;;;;;;15.00;13.90;;;19.10;99.90;;;;;;5053656;28;21044;-67
2022/05/19 04:05:04;;;;;;;15.63;14.10;;;19.10;99.90;;;;;;5043486;28;20828;-67
2022/05/19 04:07:32;;;;;;;15.63;14.27;;;19.20;99.90;;;;;;5044581;28;21335;-67
2022/05/19 04:09:59;;;;;;;15.67;14.33;;;19.20;99.90;;;;;;5045126;28;21110;-66
2022/05/19 04:12:26;;;;;;;15.70;14.70;;;19.30;99.90;;;;;;5046610;28;20824;-67
2022/05/19 04:14:54;;;;;;;15.57;14.37;;;19.40;99.90;;;;;;5046502;28;20463;-67
2022/05/19 04:17:22;;;;;;;15.60;14.30;;;19.40;99.90;;;;;;5046324;28;20482;-67
2022/05/19 04:19:49;;;;;;;15.23;14.20;;;19.50;99.90;;;;;;5044771;28;20512;-68
2022/05/19 04:22:16;;;;;;;16.20;15.00;;;19.50;99.90;;;;;;5046844;28;20867;-67
2022/05/19 04:24:43;;;;;;;18.07;15.43;;;19.60;99.90;;;;;;5045105;28;20459;-67
2022/05/19 04:27:12;;;;;;;16.70;14.50;;;19.60;99.90;;;;;;5045674;28;21300;-67
2022/05/19 04:29:39;;;;;;;15.83;14.70;;;19.70;99.90;;;;;;5047140;28;20455;-67
2022/05/19 04:32:08;;;;;;;14.67;13.67;;;19.70;99.90;;;;;;5046830;28;20486;-67
2022/05/19 04:34:35;;;;;;;16.63;14.87;;;19.80;99.90;;;;;;5045544;28;20474;-67
2022/05/19 04:37:02;;;;;;;18.53;14.67;;;19.90;99.90;;;;;;5045764;28;20879;-69
2022/05/19 04:39:29;;;;;;;17.03;15.33;;;19.90;99.90;;;;;;5047655;28;20458;-69
2022/05/19 04:41:56;;;;;;;15.83;14.50;;;19.90;99.90;;;;;;5045730;28;20547;-70
2022/05/19 04:44:23;;;;;;;15.77;14.67;;;20.00;99.90;;;;;;5044286;28;20490;-67
2022/05/19 04:46:50;;;;;;;15.53;14.43;;;20.00;99.90;;;;;;5046349;28;20689;-67
2022/05/19 04:49:18;;;;;;;15.90;14.07;;;20.10;99.90;;;;;;5045809;28;20516;-69
2022/05/19 04:51:45;;;;;;;15.23;14.13;;;20.20;99.90;;;;;;5046036;28;20455;-68
2022/05/19 04:54:12;;;;;;;15.53;14.33;;;20.10;99.90;;;;;;5045567;28;20989;-68
2022/05/19 04:56:40;;;;;;;16.07;14.83;;;20.00;99.90;;;;;;5045736;28;20513;-68
2022/05/19 04:59:13;;;;;;;16.37;15.07;;;20.00;99.90;;;;;;5040484;28;20981;-68
2022/05/19 05:01:41;;;;;;;16.17;14.93;;;19.80;99.90;;;;;;5046021;28;21167;-68
2022/05/19 05:04:08;;;;;;;17.03;15.83;;;19.90;99.90;;;;;;5043323;28;20467;-68
2022/05/19 05:06:36;;;;;;;16.60;15.13;;;19.80;99.90;;;;;;5044618;28;21000;-66
2022/05/19 05:09:03;;;;;;;16.07;15.03;;;19.90;99.90;;;;;;5045527;28;20466;-67
2022/05/19 05:11:30;;;;;;;15.17;13.87;;;19.90;99.90;;;;;;5046269;28;20469;-67
2022/05/19 05:13:57;;;;;;;17.73;16.43;;;20.00;99.90;;;;;;5045569;28;20473;-67
2022/05/19 05:16:25;;;;;;;16.10;14.67;;;20.00;99.90;;;;;;5045089;28;20466;-69
2022/05/19 05:18:53;;;;;;;16.83;15.20;;;19.90;99.90;;;;;;5043801;28;20455;-68
2022/05/19 05:21:19;;;;;;;16.33;15.00;;;20.10;99.90;;;;;;5046741;28;22445;-67
2022/05/19 05:23:49;;;;;;;15.93;14.60;;;20.10;99.90;;;;;;5049673;28;20469;-67
2022/05/19 05:26:16;;;;;;;16.17;15.20;;;20.20;99.90;;;;;;5078033;28;20461;-68
2022/05/19 05:28:43;;;;;;;16.90;15.77;;;20.30;99.90;;;;;;5074458;28;20463;-67
2022/05/19 05:31:10;;;;;;;16.20;14.97;;;20.40;99.90;;;;;;5061967;28;20965;-67
2022/05/19 05:33:37;;;;;;;17.00;16.10;;;20.40;99.90;;;;;;5045883;28;20454;-67
2022/05/19 05:36:04;;;;;;;15.63;14.40;;;20.50;99.90;;;;;;5045837;28;20477;-67
2022/05/19 05:38:32;;;;;;;16.63;14.97;;;20.60;99.90;;;;;;5044458;28;20481;-67
2022/05/19 05:41:02;;;;;;;16.10;15.00;;;20.80;99.90;;;;;;5044612;28;20681;-69
2022/05/19 05:43:30;;;;;;;16.63;15.30;;;20.90;99.90;;;;;;5057529;28;20863;-67
2022/05/19 05:46:05;;;;;;;16.60;15.30;;;21.10;99.90;;;;;;5078342;28;21061;-67
2022/05/19 05:48:36;;;;;;;16.60;15.07;;;21.20;99.90;;;;;;5045307;28;20470;-68
2022/05/19 05:51:03;;;;;;;16.20;15.27;;;21.30;99.90;;;;;;5045933;28;20459;-67
2022/05/19 05:53:30;;;;;;;16.73;15.73;;;21.30;99.90;;;;;;5045593;28;22515;-68
2022/05/19 05:55:57;;;;;;;16.07;14.67;;;21.60;99.90;;;;;;5043388;28;20490;-67
2022/05/19 05:58:26;;;;;;;15.40;14.40;;;21.80;99.90;;;;;;5044483;28;20466;-67
2022/05/19 06:00:53;;;;;;;16.07;15.07;;;22.00;99.90;;;;;;5041912;28;20498;-68
2022/05/19 06:03:21;;;;;;;18.33;16.40;;;22.20;99.90;;;;;;5043190;28;20477;-67
2022/05/19 06:05:48;;;;;;;61.03;18.10;;;22.20;99.90;;;;;;5042818;28;20471;-67
2022/05/19 06:08:15;;;;;;;37.13;17.20;;;22.40;99.90;;;;;;5042396;28;20864;-68
2022/05/19 06:10:43;;;;;;;34.97;17.00;;;22.70;99.90;;;;;;5042200;28;20520;-68
2022/05/19 06:13:10;;;;;;;35.13;16.80;;;23.00;99.90;;;;;;5043829;28;20482;-68
2022/05/19 06:15:38;;;;;;;45.97;16.60;;;23.30;99.90;;;;;;5042476;28;20463;-67
2022/05/19 06:18:05;;;;;;;30.37;16.30;;;23.50;99.90;;;;;;5047098;28;20451;-67
2022/05/19 06:20:33;;;;;;;26.27;17.33;;;23.70;99.90;;;;;;5047162;28;20477;-67
2022/05/19 06:22:59;;;;;;;32.13;17.40;;;23.80;99.90;;;;;;5046858;28;21114;-67
2022/05/19 06:25:27;;;;;;;32.47;16.60;;;23.90;99.90;;;;;;5045794;28;20463;-67
2022/05/19 06:27:55;;;;;;;25.67;16.53;;;24.10;99.90;;;;;;5046207;28;20489;-68
2022/05/19 06:30:23;;;;;;;29.50;17.93;;;23.80;99.90;;;;;;5046835;28;20546;-70
2022/05/19 06:32:52;;;;;;;36.83;16.67;;;24.20;99.90;;;;;;5046427;28;20823;-68
2022/05/19 06:35:21;;;;;;;37.60;17.13;;;24.40;99.90;;;;;;5046435;28;20990;-68
2022/05/19 06:37:49;;;;;;;29.47;16.20;;;24.30;99.90;;;;;;5044984;28;20473;-68
2022/05/19 06:40:16;;;;;;;29.57;16.70;;;24.30;99.90;;;;;;5047581;28;20457;-68
2022/05/19 06:42:44;;;;;;;28.17;16.80;;;24.30;99.90;;;;;;5050884;28;21103;-67
2022/05/19 06:45:13;;;;;;;35.47;18.10;;;24.30;99.90;;;;;;5046636;28;20511;-68
2022/05/19 06:47:40;;;;;;;19.47;17.03;;;24.50;99.90;;;;;;5046629;28;20458;-68
2022/05/19 06:50:09;;;;;;;25.60;17.23;;;24.70;99.90;;;;;;5044474;28;21024;-68
2022/05/19 06:52:43;;;;;;;34.37;18.10;;;24.80;99.90;;;;;;5046485;28;20466;-68
2022/05/19 06:55:12;;;;;;;26.97;18.30;;;25.00;99.90;;;;;;5047412;28;20548;-68
2022/05/19 06:57:39;;;;;;;25.27;17.17;;;25.10;99.90;;;;;;5047282;28;20878;-67
2022/05/19 07:00:09;;;;;;;18.43;16.23;;;25.10;99.90;;;;;;5047397;28;20467;-68
2022/05/19 07:02:36;;;;;;;28.03;17.20;;;25.30;99.90;;;;;;5046745;28;20500;-68
2022/05/19 07:05:03;;;;;;;31.33;16.70;;;25.80;99.90;;;;;;5045841;28;21032;-68
2022/05/19 07:07:31;;;;;;;36.90;16.60;;;26.00;99.90;;;;;;5048059;28;20599;-68
2022/05/19 07:09:58;;;;;;;19.63;17.03;;;26.10;99.90;;;;;;5045497;28;20459;-67
2022/05/19 07:12:26;;;;;;;19.53;17.60;;;25.70;99.90;;;;;;5039041;28;20540;-69
2022/05/19 07:14:53;;;;;;;19.33;16.40;;;26.10;99.90;;;;;;5041165;28;20558;-68
2022/05/19 07:17:20;;;;;;;19.33;16.57;;;26.30;99.90;;;;;;5042205;28;20491;-68
2022/05/19 07:22:34;;;;;;;28.77;17.03;;;26.10;99.90;;;;;;5041070;28;21312;-67
2022/05/19 07:25:03;;;;;;;18.97;16.60;;;26.30;99.90;;;;;;5043419;28;20505;-67
2022/05/19 07:27:30;;;;;;;18.10;16.37;;;26.60;99.90;;;;;;5069874;28;20466;-68
2022/05/19 07:29:59;;;;;;;18.47;16.10;;;27.00;99.90;;;;;;5071396;28;20467;-68
2022/05/19 07:32:26;;;;;;;27.97;16.90;;;27.20;99.90;;;;;;5062214;28;20956;-68
2022/05/19 07:34:55;;;;;;;26.33;17.73;;;27.30;99.90;;;;;;5041511;28;20471;-68
2022/05/19 07:37:22;;;;;;;23.10;16.30;;;27.20;99.90;;;;;;5041836;28;20969;-68
2022/05/19 07:39:51;;;;;;;27.03;18.40;;;27.20;99.90;;;;;;5040314;28;20854;-68
2022/05/19 07:42:18;;;;;;;30.77;17.27;;;27.00;99.90;;;;;;5039627;28;20495;-69
2022/05/19 07:44:45;;;;;;;25.67;17.70;;;27.20;99.90;;;;;;5039325;28;21026;-68
2022/05/19 07:47:12;;;;;;;37.40;18.07;;;27.20;99.90;;;;;;5039821;28;20474;-68
2022/05/19 07:49:39;;;;;;;17.97;16.20;;;27.20;99.90;;;;;;5040355;28;20458;-68
2022/05/19 07:52:07;;;;;;;19.87;18.10;;;27.20;99.90;;;;;;5040224;28;21502;-68
2022/05/19 07:54:34;;;;;;;19.03;17.00;;;27.20;99.90;;;;;;5039103;28;20462;-68
2022/05/19 07:57:04;;;;;;;29.57;18.40;;;26.70;99.90;;;;;;5040191;28;20477;-68
2022/05/19 07:59:31;;;;;;;19.83;17.10;;;26.70;99.90;;;;;;5062599;28;20546;-67
2022/05/19 08:01:58;;;;;;;19.53;17.53;;;26.60;99.90;;;;;;5041006;28;20531;-68
2022/05/19 08:04:27;;;;;;;26.87;17.97;;;26.60;99.90;;;;;;5040494;28;20471;-67
2022/05/19 08:06:54;;;;;;;19.97;17.87;;;26.70;99.90;;;;;;5040788;28;20470;-68
2022/05/19 08:12:08;;;;;;;19.00;17.00;;;27.20;99.90;;;;;;5041022;28;21081;-68
2022/05/19 08:17:20;;;;;;;18.50;17.03;;;27.70;99.90;;;;;;5042054;28;20502;-68
2022/05/19 08:19:47;;;;;;;20.63;17.17;;;28.30;98.10;;;;;;5040127;28;22291;-68
2022/05/19 08:22:14;;;;;;;19.13;17.63;;;28.60;96.40;;;;;;5040847;28;20517;-68
2022/05/19 08:24:46;;;;;;;19.63;18.20;;;29.20;96.10;;;;;;5041096;28;20463;-68
2022/05/19 08:27:14;;;;;;;18.73;17.33;;;29.50;93.70;;;;;;5042208;28;20459;-68
2022/05/19 08:29:41;;;;;;;19.73;17.77;;;29.80;93.20;;;;;;5041231;28;20466;-68
2022/05/19 08:32:08;;;;;;;19.87;18.17;;;30.30;92.10;;;;;;5042145;28;21149;-68
2022/05/19 08:34:35;;;;;;;19.20;18.00;;;30.90;91.20;;;;;;5039877;28;20688;-68
2022/05/19 08:37:02;;;;;;;18.53;17.07;;;31.10;89.20;;;;;;5041365;28;20492;-69
2022/05/19 08:39:30;;;;;;;19.17;17.70;;;31.10;86.40;;;;;;5040139;28;20471;-68
2022/05/19 08:42:01;;;;;;;18.33;17.00;;;30.60;85.60;;;;;;5040798;28;21033;-69
2022/05/19 08:44:32;;;;;;;19.70;17.80;;;30.90;85.00;;;;;;5074573;28;20489;-69
2022/05/19 08:47:02;;;;;;;19.53;17.83;;;31.10;86.80;;;;;;5072777;28;20468;-69
2022/05/19 08:49:37;;;;;;;22.93;18.00;;;31.70;84.90;;;;;;5060012;28;20463;-68
2022/05/19 08:52:08;;;;;;;23.40;19.00;;;31.50;85.20;;;;;;5040661;28;21060;-68
2022/05/19 08:54:37;;;;;;;26.77;17.60;;;32.00;85.80;;;;;;5039691;28;21044;-69
2022/05/19 08:57:10;;;;;;;20.47;17.10;;;31.70;84.10;;;;;;5039227;28;21187;-68
2022/05/19 08:59:51;;;;;;;19.00;17.50;;;31.50;85.30;;;;;;5040243;28;20988;-68
2022/05/19 09:02:25;;;;;;;24.70;16.90;;;31.40;84.70;;;;;;5040730;28;20860;-68
2022/05/19 09:05:26;;;;;;;26.73;17.17;;;31.80;84.60;;;;;;5052176;28;20517;-69
2022/05/19 09:08:02;;;;;;;19.83;18.00;;;31.80;83.80;;;;;;5071687;28;20655;-69
2022/05/19 09:10:50;;;;;;;20.13;18.20;;;32.00;80.50;;;;;;5072209;28;21030;-69
2022/05/19 09:13:27;;;;;;;19.53;17.53;;;31.70;80.60;;;;;;5060957;28;20470;-68
2022/05/19 09:15:56;;;;;;;19.53;17.90;;;31.80;79.50;;;;;;5037875;28;20597;-69
2022/05/19 09:18:32;;;;;;;21.07;17.97;;;32.30;78.30;;;;;;5038556;28;20458;-70
2022/05/19 09:21:00;;;;;;;32.03;19.43;;;31.90;78.40;;;;;;5037776;28;21110;-70
2022/05/19 09:23:27;;;;;;;33.17;17.67;;;31.90;80.30;;;;;;5042887;28;20494;-70
2022/05/19 09:26:02;;;;;;;20.10;18.07;;;32.00;79.00;;;;;;5071971;28;20454;-70
2022/05/19 09:28:29;;;;;;;26.97;17.90;;;32.10;78.30;;;;;;5071265;28;20497;-70
2022/05/19 09:30:59;;;;;;;22.90;17.97;;;32.10;76.70;;;;;;5049415;28;20474;-69
2022/05/19 09:33:32;;;;;;;18.70;16.87;;;32.10;75.60;;;;;;5040675;28;20470;-70
2022/05/19 09:36:00;;;;;;;28.57;17.13;;;31.90;75.30;;;;;;5041840;28;20467;-70
2022/05/19 09:38:33;;;;;;;20.53;17.50;;;32.00;74.80;;;;;;5040995;28;20755;-69
2022/05/19 09:41:03;;;;;;;18.70;17.33;;;31.90;73.70;;;;;;5042124;28;20879;-70
2022/05/19 09:43:33;;;;;;;19.40;17.70;;;32.10;74.70;;;;;;5040137;28;20967;-69
2022/05/19 09:46:09;;;;;;;18.97;17.40;;;32.40;73.30;;;;;;5044334;28;20496;-69
2022/05/19 09:48:43;;;;;;;21.87;18.03;;;33.00;72.80;;;;;;5066767;28;20454;-70
2022/05/19 09:51:13;;;;;;;27.13;18.00;;;33.10;72.40;;;;;;5077970;28;20470;-69
2022/05/19 09:53:42;;;;;;;22.20;17.90;;;33.20;72.10;;;;;;5048156;28;20462;-70
2022/05/19 09:56:13;;;;;;;32.97;17.77;;;33.70;70.30;;;;;;5043879;28;21017;-69
2022/05/19 09:58:44;;;;;;;20.23;16.17;;;33.90;68.40;;;;;;5043926;28;20447;-69
2022/05/19 10:01:20;;;;;;;24.87;17.43;;;33.90;68.70;;;;;;5045140;28;20809;-69
2022/05/19 10:03:51;;;;;;;22.63;17.20;;;34.20;67.60;;;;;;5045518;28;20506;-68
2022/05/19 10:06:22;;;;;;;23.13;18.03;;;33.80;65.80;;;;;;5044248;28;20524;-68
2022/05/19 10:08:58;;;;;;;37.23;18.03;;;33.20;67.60;;;;;;5045266;28;20926;-69
2022/05/19 10:11:28;;;;;;;27.33;17.73;;;33.70;68.50;;;;;;5044570;28;21225;-68
2022/05/19 10:14:04;;;;;;;21.47;18.17;;;34.20;66.40;;;;;;5046404;28;20480;-69
2022/05/19 10:16:42;;;;;;;23.80;17.70;;;34.50;68.40;;;;;;5044654;28;20606;-69
2022/05/19 10:19:22;;;;;;;25.83;18.13;;;34.40;64.80;;;;;;5045497;28;20465;-69
2022/05/19 10:22:04;;;;;;;22.43;17.50;;;34.10;64.00;;;;;;5050879;28;20472;-69
2022/05/19 10:24:46;;;;;;;21.10;18.20;;;34.60;63.30;;;;;;5072513;28;20462;-69
2022/05/19 10:33:15;;;;;;;20.87;16.43;;;34.70;61.50;;;;;;5044162;28;20516;-69
2022/05/19 10:35:59;;;;;;;21.00;15.57;;;34.20;61.40;;;;;;5043647;28;20471;-69
2022/05/19 10:38:44;;;;;;;23.90;16.50;;;34.90;60.20;;;;;;5043398;28;20984;-69
2022/05/19 10:41:25;;;;;;;23.43;17.10;;;34.50;60.30;;;;;;5044954;28;20549;-69
2022/05/19 10:44:13;;;;;;;22.07;16.60;;;34.10;60.90;;;;;;5060214;28;20570;-69
2022/05/19 10:46:52;;;;;;;20.43;15.87;;;34.30;60.90;;;;;;5076552;28;20560;-69
2022/05/19 10:49:51;;;;;;;19.10;16.70;;;34.80;59.60;;;;;;5078050;28;20965;-69
2022/05/19 10:52:33;;;;;;;19.00;17.03;;;35.30;59.00;;;;;;5043624;28;20573;-69
2022/05/19 10:55:13;;;;;;;20.80;16.43;;;34.90;58.30;;;;;;5045066;28;20458;-69
2022/05/19 10:58:06;;;;;;;21.57;16.93;;;34.10;58.70;;;;;;5045872;28;20504;-68
2022/05/19 11:00:48;;;;;;;26.53;16.13;;;34.20;59.00;;;;;;5044557;28;20871;-69
2022/05/19 11:03:49;;;;;;;18.90;17.00;;;35.00;58.60;;;;;;5044013;28;20459;-69
2022/05/19 11:06:41;;;;;;;22.03;17.47;;;35.80;58.30;;;;;;5044387;28;20497;-69
2022/05/19 11:09:21;;;;;;;28.13;17.10;;;36.30;56.30;;;;;;5043714;28;21337;-69
2022/05/19 11:11:59;;;;;;;38.37;17.60;;;36.60;56.50;;;;;;5044655;28;21023;-69
2022/05/19 11:14:38;;;;;;;43.47;18.00;;;36.30;55.70;;;;;;5043846;28;20589;-69
2022/05/19 11:17:14;;;;;;;19.47;16.37;;;36.60;56.00;;;;;;5043589;28;20973;-70
2022/05/19 11:19:47;;;;;;;39.00;17.30;;;37.30;55.20;;;;;;5044103;28;20498;-69
2022/05/19 11:22:18;;;;;;;34.13;17.90;;;37.30;55.80;;;;;;5043166;28;20462;-69
2022/05/19 11:27:41;;;;;;;17.20;15.90;;;37.10;53.40;;;;;;5043528;28;21284;-70
2022/05/19 11:30:14;;;;;;;21.73;16.40;;;36.90;54.10;;;;;;5044496;28;20712;-69
2022/05/19 11:32:43;;;;;;;24.70;16.90;;;37.10;53.70;;;;;;5043352;28;20497;-69
2022/05/19 11:35:16;;;;;;;40.47;17.73;;;36.90;53.20;;;;;;5057573;28;20833;-69
2022/05/19 11:37:52;;;;;;;46.27;19.20;;;36.60;54.10;;;;;;5070345;28;21004;-69
2022/05/19 11:40:23;;;;;;;23.67;18.00;;;36.70;55.20;;;;;;5077694;28;20485;-69
2022/05/19 11:42:56;;;;;;;24.57;17.17;;;36.40;55.20;;;;;;5051349;28;20470;-69
2022/05/19 11:45:32;;;;;;;47.07;18.80;;;36.20;55.40;;;;;;5077313;28;20490;-70
2022/05/19 11:56:34;;;;;;;22.30;17.50;;;34.90;58.70;;;;;;5043026;28;20507;-70
2022/05/19 11:59:01;;;;;;;21.23;17.63;;;35.50;57.50;;;;;;5042292;28;20987;-70
2022/05/19 12:01:37;;;;;;;22.83;18.30;;;36.50;55.80;;;;;;5042543;28;20469;-69
2022/05/19 12:04:12;;;;;;;21.50;17.17;;;36.60;55.90;;;;;;5042630;28;20481;-69
2022/05/19 12:06:47;;;;;;;28.43;16.90;;;36.80;56.10;;;;;;5041248;28;20473;-69
2022/05/19 12:09:25;;;;;;;18.83;17.00;;;37.50;54.80;;;;;;5042238;28;20468;-69
2022/05/19 12:11:57;;;;;;;36.10;18.10;;;37.30;55.60;;;;;;5042628;28;20503;-69
2022/05/19 12:14:36;;;;;;;27.57;18.60;;;37.20;55.00;;;;;;5042331;28;20491;-68
2022/05/19 12:17:15;;;;;;;23.63;18.13;;;37.20;54.90;;;;;;5043358;28;20457;-69
2022/05/19 12:19:47;;;;;;;23.77;17.23;;;37.30;54.00;;;;;;5042695;28;21172;-70
2022/05/19 12:22:19;;;;;;;22.13;16.93;;;37.30;53.60;;;;;;5042840;28;20498;-69
2022/05/19 12:24:55;;;;;;;18.80;17.10;;;36.50;54.30;;;;;;5042124;28;20496;-69
2022/05/19 12:27:25;;;;;;;19.33;17.27;;;36.20;54.60;;;;;;5042041;28;20458;-69
2022/05/19 12:30:00;;;;;;;24.13;17.73;;;35.20;55.50;;;;;;5041933;28;20466;-69
2022/05/19 12:32:33;;;;;;;20.90;17.70;;;34.40;56.80;;;;;;5042109;28;20454;-69
2022/05/19 12:35:04;;;;;;;20.07;17.57;;;33.60;57.70;;;;;;5041170;28;20463;-69
2022/05/19 12:37:46;;;;;;;35.67;17.90;;;32.90;58.90;;;;;;5041798;28;20506;-68
2022/05/19 12:40:21;;;;;;;19.33;17.30;;;32.40;60.30;;;;;;5042937;28;20461;-69
2022/05/19 12:42:49;;;;;;;18.70;16.83;;;32.20;60.90;;;;;;5041699;28;21004;-69
2022/05/19 12:45:19;;;;;;;17.63;16.17;;;32.00;62.10;;;;;;5039540;28;21307;-69
2022/05/19 12:47:59;;;;;;;19.17;17.30;;;31.70;62.30;;;;;;5042567;28;20521;-69
2022/05/19 12:50:43;;;;;;;114.40;21.27;;;30.70;67.00;;;;;;5042061;28;20835;-68
2022/05/19 12:53:13;;;;;;;91.17;18.03;;;28.20;67.60;;;;;;5041637;28;20490;-68
2022/05/19 12:55:51;;;;;;;43.43;25.87;;;25.20;78.00;;;;;;5041238;28;20550;-65
2022/05/19 12:58:48;;;;;;;42.50;30.50;;;22.50;99.90;;;;;;5041897;28;20497;-65
2022/05/19 13:01:19;;;;;;;40.80;28.97;;;20.40;99.90;;;;;;5041383;28;20455;-64
2022/05/19 13:03:51;;;;;;;31.97;26.33;;;19.10;99.90;;;;;;5072736;28;20485;-63
2022/05/19 13:06:22;;;;;;;42.97;23.10;;;18.10;99.90;;;;;;5072964;28;20466;-65
2022/05/19 13:08:54;;;;;;;23.87;21.60;;;17.60;99.90;;;;;;5041368;28;20459;-67